sensor_id;sensor_type;location;lat;lon;timestamp;P1;durP1;ratioP1;P2;durP2;ratioP2
49310;SDS011;35177;45.900;5.946;2023-07-02T00:00:51;4.50;;;3.90;;
49310;SDS011;35177;45.900;5.946;2023-07-02T00:03:17;4.78;;;4.10;;
49310;SDS011;35177;45.900;5.946;2023-07-02T00:05:46;5.55;;;4.25;;
49310;SDS011;35177;45.900;5.946;2023-07-02T00:08:16;6.57;;;4.40;;
49310;SDS011;35177;45.900;5.946;2023-07-02T00:10:41;5.43;;;4.18;;
49310;SDS011;35177;45.900;5.946;2023-07-02T00:13:06;9.98;;;4.47;;
49310;SDS011;35177;45.900;5.946;2023-07-02T00:15:32;5.72;;;4.10;;
49310;SDS011;35177;45.900;5.946;2023-07-02T00:17:57;7.82;;;4.15;;
49310;SDS011;35177;45.900;5.946;2023-07-02T00:20:23;5.70;;;4.35;;
49310;SDS011;35177;45.900;5.946;2023-07-02T00:22:49;5.45;;;4.22;;
49310;SDS011;35177;45.900;5.946;2023-07-02T00:25:15;4.85;;;3.95;;
49310;SDS011;35177;45.900;5.946;2023-07-02T00:27:40;4.85;;;4.20;;
49310;SDS011;35177;45.900;5.946;2023-07-02T00:30:06;8.18;;;4.35;;
49310;SDS011;35177;45.900;5.946;2023-07-02T00:32:32;6.47;;;4.50;;
49310;SDS011;35177;45.900;5.946;2023-07-02T00:34:58;5.82;;;4.15;;
49310;SDS011;35177;45.900;5.946;2023-07-02T00:37:24;8.70;;;3.75;;
49310;SDS011;35177;45.900;5.946;2023-07-02T00:39:49;4.35;;;3.63;;
49310;SDS011;35177;45.900;5.946;2023-07-02T00:42:15;4.85;;;4.35;;
49310;SDS011;35177;45.900;5.946;2023-07-02T00:44:41;6.78;;;4.53;;
49310;SDS011;35177;45.900;5.946;2023-07-02T00:47:10;4.75;;;3.88;;
49310;SDS011;35177;45.900;5.946;2023-07-02T00:49:37;5.95;;;3.97;;
49310;SDS011;35177;45.900;5.946;2023-07-02T00:52:04;4.45;;;3.38;;
49310;SDS011;35177;45.900;5.946;2023-07-02T00:54:30;5.22;;;3.80;;
49310;SDS011;35177;45.900;5.946;2023-07-02T00:56:56;3.47;;;3.17;;
49310;SDS011;35177;45.900;5.946;2023-07-02T00:59:28;6.38;;;3.42;;
49310;SDS011;35177;45.900;5.946;2023-07-02T01:01:55;4.35;;;3.40;;
49310;SDS011;35177;45.900;5.946;2023-07-02T01:04:22;6.70;;;3.03;;
49310;SDS011;35177;45.900;5.946;2023-07-02T01:06:52;4.13;;;3.20;;
49310;SDS011;35177;45.900;5.946;2023-07-02T01:09:22;4.43;;;3.40;;
49310;SDS011;35177;45.900;5.946;2023-07-02T01:11:53;6.18;;;3.17;;
49310;SDS011;35177;45.900;5.946;2023-07-02T01:14:31;5.65;;;3.20;;
49310;SDS011;35177;45.900;5.946;2023-07-02T01:16:59;5.25;;;3.50;;
49310;SDS011;35177;45.900;5.946;2023-07-02T01:19:39;4.18;;;3.40;;
49310;SDS011;35177;45.900;5.946;2023-07-02T01:22:06;3.97;;;3.17;;
49310;SDS011;35177;45.900;5.946;2023-07-02T01:24:32;4.45;;;3.60;;
49310;SDS011;35177;45.900;5.946;2023-07-02T01:26:58;4.00;;;3.22;;
49310;SDS011;35177;45.900;5.946;2023-07-02T01:29:28;5.50;;;3.55;;
49310;SDS011;35177;45.900;5.946;2023-07-02T01:31:54;4.25;;;3.67;;
49310;SDS011;35177;45.900;5.946;2023-07-02T01:34:20;3.72;;;3.28;;
49310;SDS011;35177;45.900;5.946;2023-07-02T01:36:45;4.20;;;3.47;;
49310;SDS011;35177;45.900;5.946;2023-07-02T01:39:11;5.90;;;3.75;;
49310;SDS011;35177;45.900;5.946;2023-07-02T01:41:45;5.05;;;3.50;;
49310;SDS011;35177;45.900;5.946;2023-07-02T01:44:14;4.97;;;3.78;;
49310;SDS011;35177;45.900;5.946;2023-07-02T01:46:39;5.07;;;3.90;;
49310;SDS011;35177;45.900;5.946;2023-07-02T01:49:05;8.60;;;4.15;;
49310;SDS011;35177;45.900;5.946;2023-07-02T01:51:30;4.63;;;4.10;;
49310;SDS011;35177;45.900;5.946;2023-07-02T01:53:56;4.47;;;3.95;;
49310;SDS011;35177;45.900;5.946;2023-07-02T01:56:21;4.20;;;3.80;;
49310;SDS011;35177;45.900;5.946;2023-07-02T01:58:47;5.93;;;4.15;;
49310;SDS011;35177;45.900;5.946;2023-07-02T02:01:12;4.50;;;4.10;;
49310;SDS011;35177;45.900;5.946;2023-07-02T02:03:37;9.43;;;4.25;;
49310;SDS011;35177;45.900;5.946;2023-07-02T02:06:03;4.88;;;4.22;;
49310;SDS011;35177;45.900;5.946;2023-07-02T02:08:28;6.75;;;3.90;;
49310;SDS011;35177;45.900;5.946;2023-07-02T02:10:54;6.93;;;4.07;;
49310;SDS011;35177;45.900;5.946;2023-07-02T02:13:19;4.95;;;3.42;;
49310;SDS011;35177;45.900;5.946;2023-07-02T02:15:45;4.65;;;4.03;;
49310;SDS011;35177;45.900;5.946;2023-07-02T02:18:10;5.18;;;4.13;;
49310;SDS011;35177;45.900;5.946;2023-07-02T02:20:35;5.72;;;4.10;;
49310;SDS011;35177;45.900;5.946;2023-07-02T02:23:01;6.78;;;4.00;;
49310;SDS011;35177;45.900;5.946;2023-07-02T02:25:27;6.10;;;4.05;;
49310;SDS011;35177;45.900;5.946;2023-07-02T02:27:52;4.20;;;3.80;;
49310;SDS011;35177;45.900;5.946;2023-07-02T02:30:18;4.82;;;4.32;;
49310;SDS011;35177;45.900;5.946;2023-07-02T02:32:43;4.15;;;3.75;;
49310;SDS011;35177;45.900;5.946;2023-07-02T02:35:09;5.10;;;4.47;;
49310;SDS011;35177;45.900;5.946;2023-07-02T02:37:36;6.68;;;3.92;;
49310;SDS011;35177;45.900;5.946;2023-07-02T02:40:03;6.28;;;4.10;;
49310;SDS011;35177;45.900;5.946;2023-07-02T02:42:30;7.05;;;4.55;;
49310;SDS011;35177;45.900;5.946;2023-07-02T02:44:56;7.00;;;4.22;;
49310;SDS011;35177;45.900;5.946;2023-07-02T02:47:21;8.93;;;4.50;;
49310;SDS011;35177;45.900;5.946;2023-07-02T02:49:47;6.03;;;4.10;;
49310;SDS011;35177;45.900;5.946;2023-07-02T02:52:12;7.03;;;4.65;;
49310;SDS011;35177;45.900;5.946;2023-07-02T02:54:39;9.38;;;4.70;;
49310;SDS011;35177;45.900;5.946;2023-07-02T02:57:05;6.82;;;4.88;;
49310;SDS011;35177;45.900;5.946;2023-07-02T02:59:30;7.00;;;4.57;;
49310;SDS011;35177;45.900;5.946;2023-07-02T03:01:56;5.72;;;4.15;;
49310;SDS011;35177;45.900;5.946;2023-07-02T03:04:21;8.18;;;5.10;;
49310;SDS011;35177;45.900;5.946;2023-07-02T03:06:50;8.00;;;5.10;;
49310;SDS011;35177;45.900;5.946;2023-07-02T03:09:16;8.18;;;4.90;;
49310;SDS011;35177;45.900;5.946;2023-07-02T03:11:42;6.55;;;5.05;;
49310;SDS011;35177;45.900;5.946;2023-07-02T03:14:07;6.35;;;5.50;;
49310;SDS011;35177;45.900;5.946;2023-07-02T03:16:33;7.85;;;5.07;;
49310;SDS011;35177;45.900;5.946;2023-07-02T03:18:58;7.13;;;5.45;;
49310;SDS011;35177;45.900;5.946;2023-07-02T03:21:24;7.43;;;6.00;;
49310;SDS011;35177;45.900;5.946;2023-07-02T03:23:50;9.63;;;5.22;;
49310;SDS011;35177;45.900;5.946;2023-07-02T03:26:15;7.70;;;5.55;;
49310;SDS011;35177;45.900;5.946;2023-07-02T03:28:41;7.72;;;5.40;;
49310;SDS011;35177;45.900;5.946;2023-07-02T03:31:07;10.05;;;5.32;;
49310;SDS011;35177;45.900;5.946;2023-07-02T03:33:33;7.55;;;5.68;;
49310;SDS011;35177;45.900;5.946;2023-07-02T03:35:58;7.70;;;5.68;;
49310;SDS011;35177;45.900;5.946;2023-07-02T03:38:24;6.85;;;5.72;;
49310;SDS011;35177;45.900;5.946;2023-07-02T03:40:49;8.07;;;5.88;;
49310;SDS011;35177;45.900;5.946;2023-07-02T03:43:15;6.80;;;5.32;;
49310;SDS011;35177;45.900;5.946;2023-07-02T03:45:40;9.80;;;5.45;;
49310;SDS011;35177;45.900;5.946;2023-07-02T03:48:05;6.18;;;5.25;;
49310;SDS011;35177;45.900;5.946;2023-07-02T03:50:31;6.00;;;4.95;;
49310;SDS011;35177;45.900;5.946;2023-07-02T03:52:56;8.05;;;5.70;;
49310;SDS011;35177;45.900;5.946;2023-07-02T03:55:22;7.75;;;5.40;;
49310;SDS011;35177;45.900;5.946;2023-07-02T03:57:47;7.00;;;5.55;;
49310;SDS011;35177;45.900;5.946;2023-07-02T04:00:13;14.13;;;5.93;;
49310;SDS011;35177;45.900;5.946;2023-07-02T04:02:38;10.07;;;5.90;;
49310;SDS011;35177;45.900;5.946;2023-07-02T04:05:04;10.88;;;6.10;;
49310;SDS011;35177;45.900;5.946;2023-07-02T04:07:30;7.57;;;5.88;;
49310;SDS011;35177;45.900;5.946;2023-07-02T04:09:56;10.07;;;4.82;;
49310;SDS011;35177;45.900;5.946;2023-07-02T04:12:21;6.78;;;5.45;;
49310;SDS011;35177;45.900;5.946;2023-07-02T04:14:47;7.63;;;5.57;;
49310;SDS011;35177;45.900;5.946;2023-07-02T04:17:12;7.60;;;5.35;;
49310;SDS011;35177;45.900;5.946;2023-07-02T04:19:39;10.13;;;6.07;;
49310;SDS011;35177;45.900;5.946;2023-07-02T04:22:04;8.07;;;5.28;;
49310;SDS011;35177;45.900;5.946;2023-07-02T04:24:30;8.02;;;5.57;;
49310;SDS011;35177;45.900;5.946;2023-07-02T04:26:56;8.13;;;4.90;;
49310;SDS011;35177;45.900;5.946;2023-07-02T04:29:21;11.38;;;5.93;;
49310;SDS011;35177;45.900;5.946;2023-07-02T04:31:47;9.95;;;6.00;;
49310;SDS011;35177;45.900;5.946;2023-07-02T04:34:12;10.73;;;6.05;;
49310;SDS011;35177;45.900;5.946;2023-07-02T04:36:38;10.65;;;5.53;;
49310;SDS011;35177;45.900;5.946;2023-07-02T04:39:03;8.88;;;6.20;;
49310;SDS011;35177;45.900;5.946;2023-07-02T04:41:29;6.47;;;5.53;;
49310;SDS011;35177;45.900;5.946;2023-07-02T04:43:55;9.40;;;5.65;;
49310;SDS011;35177;45.900;5.946;2023-07-02T04:46:20;8.05;;;6.40;;
49310;SDS011;35177;45.900;5.946;2023-07-02T04:48:46;9.43;;;6.75;;
49310;SDS011;35177;45.900;5.946;2023-07-02T04:51:11;6.60;;;5.97;;
49310;SDS011;35177;45.900;5.946;2023-07-02T04:53:37;7.38;;;5.97;;
49310;SDS011;35177;45.900;5.946;2023-07-02T04:56:03;8.38;;;6.07;;
49310;SDS011;35177;45.900;5.946;2023-07-02T04:58:28;7.72;;;5.90;;
49310;SDS011;35177;45.900;5.946;2023-07-02T05:00:54;10.10;;;6.75;;
49310;SDS011;35177;45.900;5.946;2023-07-02T05:03:19;6.82;;;5.97;;
49310;SDS011;35177;45.900;5.946;2023-07-02T05:05:45;8.73;;;6.70;;
49310;SDS011;35177;45.900;5.946;2023-07-02T05:08:10;10.00;;;6.57;;
49310;SDS011;35177;45.900;5.946;2023-07-02T05:10:36;9.60;;;7.03;;
49310;SDS011;35177;45.900;5.946;2023-07-02T05:13:01;8.82;;;6.53;;
49310;SDS011;35177;45.900;5.946;2023-07-02T05:15:27;13.32;;;7.05;;
49310;SDS011;35177;45.900;5.946;2023-07-02T05:17:52;9.73;;;7.00;;
49310;SDS011;35177;45.900;5.946;2023-07-02T05:20:17;13.18;;;7.00;;
49310;SDS011;35177;45.900;5.946;2023-07-02T05:22:43;10.35;;;7.00;;
49310;SDS011;35177;45.900;5.946;2023-07-02T05:25:08;8.55;;;6.80;;
49310;SDS011;35177;45.900;5.946;2023-07-02T05:27:34;9.63;;;6.97;;
49310;SDS011;35177;45.900;5.946;2023-07-02T05:29:59;9.10;;;6.13;;
49310;SDS011;35177;45.900;5.946;2023-07-02T05:32:25;11.38;;;7.03;;
49310;SDS011;35177;45.900;5.946;2023-07-02T05:34:50;7.95;;;5.97;;
49310;SDS011;35177;45.900;5.946;2023-07-02T05:37:16;12.00;;;6.80;;
49310;SDS011;35177;45.900;5.946;2023-07-02T05:39:41;10.82;;;6.13;;
49310;SDS011;35177;45.900;5.946;2023-07-02T05:42:07;8.15;;;6.50;;
49310;SDS011;35177;45.900;5.946;2023-07-02T05:44:32;7.85;;;6.32;;
49310;SDS011;35177;45.900;5.946;2023-07-02T05:46:58;8.52;;;6.22;;
49310;SDS011;35177;45.900;5.946;2023-07-02T05:49:23;9.55;;;6.20;;
49310;SDS011;35177;45.900;5.946;2023-07-02T05:51:49;10.65;;;6.38;;
49310;SDS011;35177;45.900;5.946;2023-07-02T05:54:14;7.93;;;5.93;;
49310;SDS011;35177;45.900;5.946;2023-07-02T05:56:40;13.57;;;7.80;;
49310;SDS011;35177;45.900;5.946;2023-07-02T05:59:05;10.35;;;6.72;;
49310;SDS011;35177;45.900;5.946;2023-07-02T06:01:31;8.23;;;6.10;;
49310;SDS011;35177;45.900;5.946;2023-07-02T06:03:56;9.73;;;6.70;;
49310;SDS011;35177;45.900;5.946;2023-07-02T06:06:22;7.63;;;6.00;;
49310;SDS011;35177;45.900;5.946;2023-07-02T06:08:49;10.38;;;7.05;;
49310;SDS011;35177;45.900;5.946;2023-07-02T06:11:15;7.82;;;6.03;;
49310;SDS011;35177;45.900;5.946;2023-07-02T06:13:43;15.07;;;7.88;;
49310;SDS011;35177;45.900;5.946;2023-07-02T06:16:12;8.65;;;6.53;;
49310;SDS011;35177;45.900;5.946;2023-07-02T06:18:37;7.50;;;5.85;;
49310;SDS011;35177;45.900;5.946;2023-07-02T06:21:03;9.95;;;5.82;;
49310;SDS011;35177;45.900;5.946;2023-07-02T06:23:29;13.57;;;7.05;;
49310;SDS011;35177;45.900;5.946;2023-07-02T06:25:55;8.73;;;6.40;;
49310;SDS011;35177;45.900;5.946;2023-07-02T06:28:25;10.70;;;6.85;;
49310;SDS011;35177;45.900;5.946;2023-07-02T06:30:51;8.93;;;6.57;;
49310;SDS011;35177;45.900;5.946;2023-07-02T06:33:17;9.43;;;6.75;;
49310;SDS011;35177;45.900;5.946;2023-07-02T06:35:43;9.98;;;6.45;;
49310;SDS011;35177;45.900;5.946;2023-07-02T06:38:09;9.35;;;6.55;;
49310;SDS011;35177;45.900;5.946;2023-07-02T06:40:34;13.60;;;6.28;;
49310;SDS011;35177;45.900;5.946;2023-07-02T06:43:00;9.50;;;6.57;;
49310;SDS011;35177;45.900;5.946;2023-07-02T06:45:25;9.95;;;7.18;;
49310;SDS011;35177;45.900;5.946;2023-07-02T06:47:51;10.32;;;6.75;;
49310;SDS011;35177;45.900;5.946;2023-07-02T06:50:16;10.90;;;6.72;;
49310;SDS011;35177;45.900;5.946;2023-07-02T06:52:42;7.95;;;5.50;;
49310;SDS011;35177;45.900;5.946;2023-07-02T06:55:07;9.82;;;6.20;;
49310;SDS011;35177;45.900;5.946;2023-07-02T06:57:33;10.40;;;6.43;;
49310;SDS011;35177;45.900;5.946;2023-07-02T06:59:59;11.25;;;6.00;;
49310;SDS011;35177;45.900;5.946;2023-07-02T07:02:25;12.10;;;6.65;;
49310;SDS011;35177;45.900;5.946;2023-07-02T07:04:51;8.02;;;5.93;;
49310;SDS011;35177;45.900;5.946;2023-07-02T07:07:17;11.30;;;7.00;;
49310;SDS011;35177;45.900;5.946;2023-07-02T07:09:43;9.13;;;6.07;;
49310;SDS011;35177;45.900;5.946;2023-07-02T07:12:09;12.38;;;6.32;;
49310;SDS011;35177;45.900;5.946;2023-07-02T07:14:34;11.68;;;6.45;;
49310;SDS011;35177;45.900;5.946;2023-07-02T07:17:00;11.30;;;6.32;;
49310;SDS011;35177;45.900;5.946;2023-07-02T07:19:25;11.15;;;6.25;;
49310;SDS011;35177;45.900;5.946;2023-07-02T07:21:51;11.40;;;6.40;;
49310;SDS011;35177;45.900;5.946;2023-07-02T07:24:16;10.05;;;6.88;;
49310;SDS011;35177;45.900;5.946;2023-07-02T07:26:42;12.40;;;7.28;;
49310;SDS011;35177;45.900;5.946;2023-07-02T07:29:07;13.10;;;7.50;;
49310;SDS011;35177;45.900;5.946;2023-07-02T07:31:33;9.95;;;7.40;;
49310;SDS011;35177;45.900;5.946;2023-07-02T07:33:59;12.48;;;7.25;;
49310;SDS011;35177;45.900;5.946;2023-07-02T07:36:24;10.02;;;7.30;;
49310;SDS011;35177;45.900;5.946;2023-07-02T07:38:50;10.43;;;7.32;;
49310;SDS011;35177;45.900;5.946;2023-07-02T07:41:15;10.70;;;7.88;;
49310;SDS011;35177;45.900;5.946;2023-07-02T07:43:40;11.88;;;7.80;;
49310;SDS011;35177;45.900;5.946;2023-07-02T07:46:06;12.52;;;7.90;;
49310;SDS011;35177;45.900;5.946;2023-07-02T07:48:31;12.77;;;8.13;;
49310;SDS011;35177;45.900;5.946;2023-07-02T07:50:57;10.57;;;6.90;;
49310;SDS011;35177;45.900;5.946;2023-07-02T07:53:22;12.55;;;7.55;;
49310;SDS011;35177;45.900;5.946;2023-07-02T07:55:48;13.05;;;7.60;;
49310;SDS011;35177;45.900;5.946;2023-07-02T07:58:13;13.23;;;8.30;;
49310;SDS011;35177;45.900;5.946;2023-07-02T08:00:39;15.00;;;8.05;;
49310;SDS011;35177;45.900;5.946;2023-07-02T08:03:04;13.85;;;7.63;;
49310;SDS011;35177;45.900;5.946;2023-07-02T08:05:30;13.60;;;7.97;;
49310;SDS011;35177;45.900;5.946;2023-07-02T08:07:56;14.00;;;8.75;;
49310;SDS011;35177;45.900;5.946;2023-07-02T08:10:22;10.75;;;8.05;;
49310;SDS011;35177;45.900;5.946;2023-07-02T08:12:48;16.52;;;7.80;;
49310;SDS011;35177;45.900;5.946;2023-07-02T08:15:14;13.38;;;7.90;;
49310;SDS011;35177;45.900;5.946;2023-07-02T08:17:39;19.55;;;9.10;;
49310;SDS011;35177;45.900;5.946;2023-07-02T08:20:05;14.48;;;8.73;;
49310;SDS011;35177;45.900;5.946;2023-07-02T08:22:35;14.55;;;8.95;;
49310;SDS011;35177;45.900;5.946;2023-07-02T08:25:04;14.10;;;7.93;;
49310;SDS011;35177;45.900;5.946;2023-07-02T08:27:30;13.23;;;8.30;;
49310;SDS011;35177;45.900;5.946;2023-07-02T08:29:55;14.23;;;9.23;;
49310;SDS011;35177;45.900;5.946;2023-07-02T08:32:21;13.27;;;8.82;;
49310;SDS011;35177;45.900;5.946;2023-07-02T08:34:46;14.88;;;8.63;;
49310;SDS011;35177;45.900;5.946;2023-07-02T08:37:12;18.65;;;9.32;;
49310;SDS011;35177;45.900;5.946;2023-07-02T08:39:37;14.82;;;8.63;;
49310;SDS011;35177;45.900;5.946;2023-07-02T08:42:04;13.63;;;8.50;;
49310;SDS011;35177;45.900;5.946;2023-07-02T08:44:30;17.95;;;8.95;;
49310;SDS011;35177;45.900;5.946;2023-07-02T08:46:57;12.75;;;7.97;;
49310;SDS011;35177;45.900;5.946;2023-07-02T08:49:23;11.82;;;8.35;;
49310;SDS011;35177;45.900;5.946;2023-07-02T08:51:49;20.58;;;9.20;;
49310;SDS011;35177;45.900;5.946;2023-07-02T08:54:18;14.75;;;9.60;;
49310;SDS011;35177;45.900;5.946;2023-07-02T08:56:45;13.82;;;9.27;;
49310;SDS011;35177;45.900;5.946;2023-07-02T08:59:11;17.77;;;9.50;;
49310;SDS011;35177;45.900;5.946;2023-07-02T09:01:53;14.00;;;9.32;;
49310;SDS011;35177;45.900;5.946;2023-07-02T09:04:19;14.93;;;8.88;;
49310;SDS011;35177;45.900;5.946;2023-07-02T09:06:47;19.92;;;10.88;;
49310;SDS011;35177;45.900;5.946;2023-07-02T09:09:13;19.40;;;9.80;;
49310;SDS011;35177;45.900;5.946;2023-07-02T09:11:48;18.20;;;9.55;;
49310;SDS011;35177;45.900;5.946;2023-07-02T09:14:28;18.58;;;10.13;;
49310;SDS011;35177;45.900;5.946;2023-07-02T09:17:01;17.08;;;9.50;;
49310;SDS011;35177;45.900;5.946;2023-07-02T09:19:27;15.80;;;9.88;;
49310;SDS011;35177;45.900;5.946;2023-07-02T09:21:52;16.92;;;9.52;;
49310;SDS011;35177;45.900;5.946;2023-07-02T09:24:19;18.02;;;9.68;;
49310;SDS011;35177;45.900;5.946;2023-07-02T09:26:48;15.27;;;9.38;;
49310;SDS011;35177;45.900;5.946;2023-07-02T09:29:22;16.58;;;9.57;;
49310;SDS011;35177;45.900;5.946;2023-07-02T09:32:12;16.30;;;10.02;;
49310;SDS011;35177;45.900;5.946;2023-07-02T09:34:38;16.05;;;10.18;;
49310;SDS011;35177;45.900;5.946;2023-07-02T09:37:06;14.15;;;9.82;;
49310;SDS011;35177;45.900;5.946;2023-07-02T09:39:33;16.73;;;10.13;;
49310;SDS011;35177;45.900;5.946;2023-07-02T09:42:02;17.88;;;10.73;;
49310;SDS011;35177;45.900;5.946;2023-07-02T09:44:32;17.73;;;10.80;;
49310;SDS011;35177;45.900;5.946;2023-07-02T09:49:32;14.80;;;9.57;;
49310;SDS011;35177;45.900;5.946;2023-07-02T09:52:00;15.40;;;9.43;;
49310;SDS011;35177;45.900;5.946;2023-07-02T09:54:28;17.17;;;10.32;;
49310;SDS011;35177;45.900;5.946;2023-07-02T09:56:55;16.60;;;10.30;;
49310;SDS011;35177;45.900;5.946;2023-07-02T09:59:21;18.80;;;9.38;;
49310;SDS011;35177;45.900;5.946;2023-07-02T10:01:47;15.13;;;9.65;;
49310;SDS011;35177;45.900;5.946;2023-07-02T10:04:13;13.77;;;9.13;;
49310;SDS011;35177;45.900;5.946;2023-07-02T10:09:21;13.90;;;8.52;;
49310;SDS011;35177;45.900;5.946;2023-07-02T10:11:59;13.88;;;8.95;;
49310;SDS011;35177;45.900;5.946;2023-07-02T10:14:24;13.00;;;8.90;;
49310;SDS011;35177;45.900;5.946;2023-07-02T10:16:53;13.43;;;8.23;;
49310;SDS011;35177;45.900;5.946;2023-07-02T10:19:20;16.02;;;9.18;;
49310;SDS011;35177;45.900;5.946;2023-07-02T10:21:46;12.52;;;8.23;;
49310;SDS011;35177;45.900;5.946;2023-07-02T10:24:25;11.52;;;7.32;;
49310;SDS011;35177;45.900;5.946;2023-07-02T10:27:01;11.40;;;7.65;;
49310;SDS011;35177;45.900;5.946;2023-07-02T10:29:28;14.70;;;8.45;;
49310;SDS011;35177;45.900;5.946;2023-07-02T10:31:55;11.43;;;7.88;;
49310;SDS011;35177;45.900;5.946;2023-07-02T10:34:34;10.43;;;6.93;;
49310;SDS011;35177;45.900;5.946;2023-07-02T10:37:00;10.55;;;7.28;;
49310;SDS011;35177;45.900;5.946;2023-07-02T10:39:30;13.80;;;8.38;;
49310;SDS011;35177;45.900;5.946;2023-07-02T10:42:09;11.75;;;8.10;;
49310;SDS011;35177;45.900;5.946;2023-07-02T10:44:46;10.18;;;7.70;;
49310;SDS011;35177;45.900;5.946;2023-07-02T10:47:18;9.57;;;6.72;;
49310;SDS011;35177;45.900;5.946;2023-07-02T10:49:44;10.50;;;6.80;;
49310;SDS011;35177;45.900;5.946;2023-07-02T10:52:09;10.30;;;7.38;;
49310;SDS011;35177;45.900;5.946;2023-07-02T10:54:44;11.20;;;7.53;;
49310;SDS011;35177;45.900;5.946;2023-07-02T10:57:13;11.57;;;7.88;;
49310;SDS011;35177;45.900;5.946;2023-07-02T10:59:41;8.25;;;6.15;;
49310;SDS011;35177;45.900;5.946;2023-07-02T11:02:07;6.93;;;5.40;;
49310;SDS011;35177;45.900;5.946;2023-07-02T11:04:35;6.78;;;4.68;;
49310;SDS011;35177;45.900;5.946;2023-07-02T11:07:02;5.93;;;4.10;;
49310;SDS011;35177;45.900;5.946;2023-07-02T11:09:28;4.60;;;3.35;;
49310;SDS011;35177;45.900;5.946;2023-07-02T11:11:57;4.90;;;3.40;;
49310;SDS011;35177;45.900;5.946;2023-07-02T11:17:01;4.38;;;2.65;;
49310;SDS011;35177;45.900;5.946;2023-07-02T11:19:28;3.78;;;2.15;;
49310;SDS011;35177;45.900;5.946;2023-07-02T11:21:56;4.00;;;2.75;;
49310;SDS011;35177;45.900;5.946;2023-07-02T11:24:40;4.65;;;2.58;;
49310;SDS011;35177;45.900;5.946;2023-07-02T11:27:06;2.10;;;1.60;;
49310;SDS011;35177;45.900;5.946;2023-07-02T11:29:32;2.58;;;1.92;;
49310;SDS011;35177;45.900;5.946;2023-07-02T11:32:08;4.03;;;2.60;;
49310;SDS011;35177;45.900;5.946;2023-07-02T11:34:34;3.80;;;2.65;;
49310;SDS011;35177;45.900;5.946;2023-07-02T11:37:00;3.97;;;2.55;;
49310;SDS011;35177;45.900;5.946;2023-07-02T11:39:26;2.35;;;1.73;;
49310;SDS011;35177;45.900;5.946;2023-07-02T11:41:51;2.92;;;2.00;;
49310;SDS011;35177;45.900;5.946;2023-07-02T11:44:17;3.10;;;2.45;;
49310;SDS011;35177;45.900;5.946;2023-07-02T11:46:43;2.85;;;2.15;;
49310;SDS011;35177;45.900;5.946;2023-07-02T11:49:09;2.53;;;1.77;;
49310;SDS011;35177;45.900;5.946;2023-07-02T11:51:35;4.53;;;2.38;;
49310;SDS011;35177;45.900;5.946;2023-07-02T11:54:02;3.17;;;2.35;;
49310;SDS011;35177;45.900;5.946;2023-07-02T11:56:29;5.60;;;3.60;;
49310;SDS011;35177;45.900;5.946;2023-07-02T11:58:54;6.78;;;4.38;;
49310;SDS011;35177;45.900;5.946;2023-07-02T12:01:20;5.68;;;3.05;;
49310;SDS011;35177;45.900;5.946;2023-07-02T12:03:45;4.25;;;3.17;;
49310;SDS011;35177;45.900;5.946;2023-07-02T12:06:11;7.30;;;4.35;;
49310;SDS011;35177;45.900;5.946;2023-07-02T12:08:36;4.70;;;3.20;;
49310;SDS011;35177;45.900;5.946;2023-07-02T12:11:02;4.60;;;3.83;;
49310;SDS011;35177;45.900;5.946;2023-07-02T12:13:27;4.10;;;3.58;;
49310;SDS011;35177;45.900;5.946;2023-07-02T12:15:53;5.30;;;3.90;;
49310;SDS011;35177;45.900;5.946;2023-07-02T12:18:18;6.32;;;3.80;;
49310;SDS011;35177;45.900;5.946;2023-07-02T12:20:44;4.35;;;3.38;;
49310;SDS011;35177;45.900;5.946;2023-07-02T12:23:10;4.97;;;3.50;;
49310;SDS011;35177;45.900;5.946;2023-07-02T12:25:36;4.82;;;2.92;;
49310;SDS011;35177;45.900;5.946;2023-07-02T12:28:03;4.10;;;2.65;;
49310;SDS011;35177;45.900;5.946;2023-07-02T12:30:29;3.38;;;2.92;;
49310;SDS011;35177;45.900;5.946;2023-07-02T12:32:54;3.38;;;2.30;;
49310;SDS011;35177;45.900;5.946;2023-07-02T12:35:20;3.00;;;2.60;;
49310;SDS011;35177;45.900;5.946;2023-07-02T12:37:46;4.75;;;2.75;;
49310;SDS011;35177;45.900;5.946;2023-07-02T12:40:13;4.05;;;2.72;;
49310;SDS011;35177;45.900;5.946;2023-07-02T12:42:40;3.35;;;2.50;;
49310;SDS011;35177;45.900;5.946;2023-07-02T12:45:07;3.78;;;3.10;;
49310;SDS011;35177;45.900;5.946;2023-07-02T12:47:33;3.33;;;2.45;;
49310;SDS011;35177;45.900;5.946;2023-07-02T12:49:59;3.65;;;2.53;;
49310;SDS011;35177;45.900;5.946;2023-07-02T12:52:24;3.70;;;2.45;;
49310;SDS011;35177;45.900;5.946;2023-07-02T12:54:50;3.00;;;2.33;;
49310;SDS011;35177;45.900;5.946;2023-07-02T12:57:16;3.80;;;2.92;;
49310;SDS011;35177;45.900;5.946;2023-07-02T12:59:42;3.45;;;2.88;;
49310;SDS011;35177;45.900;5.946;2023-07-02T13:02:09;7.32;;;3.30;;
49310;SDS011;35177;45.900;5.946;2023-07-02T13:04:35;4.63;;;3.20;;
49310;SDS011;35177;45.900;5.946;2023-07-02T13:07:00;4.13;;;3.15;;
49310;SDS011;35177;45.900;5.946;2023-07-02T13:09:26;5.20;;;3.83;;
49310;SDS011;35177;45.900;5.946;2023-07-02T13:11:51;5.18;;;4.03;;
49310;SDS011;35177;45.900;5.946;2023-07-02T13:14:17;5.55;;;4.20;;
49310;SDS011;35177;45.900;5.946;2023-07-02T13:16:42;4.88;;;3.67;;
49310;SDS011;35177;45.900;5.946;2023-07-02T13:19:08;6.72;;;4.50;;
49310;SDS011;35177;45.900;5.946;2023-07-02T13:21:33;7.55;;;4.28;;
49310;SDS011;35177;45.900;5.946;2023-07-02T13:23:58;5.68;;;3.95;;
49310;SDS011;35177;45.900;5.946;2023-07-02T13:26:24;5.75;;;4.10;;
49310;SDS011;35177;45.900;5.946;2023-07-02T13:28:50;5.47;;;4.18;;
49310;SDS011;35177;45.900;5.946;2023-07-02T13:31:15;5.90;;;3.95;;
49310;SDS011;35177;45.900;5.946;2023-07-02T13:33:41;4.75;;;3.80;;
49310;SDS011;35177;45.900;5.946;2023-07-02T13:36:07;7.40;;;3.97;;
49310;SDS011;35177;45.900;5.946;2023-07-02T13:38:33;6.13;;;4.68;;
49310;SDS011;35177;45.900;5.946;2023-07-02T13:40:59;8.15;;;4.75;;
49310;SDS011;35177;45.900;5.946;2023-07-02T13:43:25;7.95;;;4.95;;
49310;SDS011;35177;45.900;5.946;2023-07-02T13:45:51;7.47;;;4.50;;
49310;SDS011;35177;45.900;5.946;2023-07-02T13:48:17;6.38;;;4.32;;
49310;SDS011;35177;45.900;5.946;2023-07-02T13:50:42;7.07;;;4.60;;
49310;SDS011;35177;45.900;5.946;2023-07-02T13:53:08;6.88;;;4.65;;
49310;SDS011;35177;45.900;5.946;2023-07-02T13:55:34;6.25;;;4.22;;
49310;SDS011;35177;45.900;5.946;2023-07-02T13:57:59;5.57;;;3.90;;
49310;SDS011;35177;45.900;5.946;2023-07-02T14:00:25;7.65;;;4.43;;
49310;SDS011;35177;45.900;5.946;2023-07-02T14:02:52;7.53;;;4.15;;
49310;SDS011;35177;45.900;5.946;2023-07-02T14:05:17;5.88;;;4.38;;
49310;SDS011;35177;45.900;5.946;2023-07-02T14:07:43;8.55;;;4.80;;
49310;SDS011;35177;45.900;5.946;2023-07-02T14:10:09;6.43;;;4.50;;
49310;SDS011;35177;45.900;5.946;2023-07-02T14:12:35;6.88;;;4.68;;
49310;SDS011;35177;45.900;5.946;2023-07-02T14:15:00;7.72;;;4.75;;
49310;SDS011;35177;45.900;5.946;2023-07-02T14:17:26;8.30;;;4.65;;
49310;SDS011;35177;45.900;5.946;2023-07-02T14:19:51;6.97;;;4.30;;
49310;SDS011;35177;45.900;5.946;2023-07-02T14:22:17;6.75;;;4.78;;
49310;SDS011;35177;45.900;5.946;2023-07-02T14:24:42;7.47;;;4.50;;
49310;SDS011;35177;45.900;5.946;2023-07-02T14:27:08;6.95;;;4.47;;
49310;SDS011;35177;45.900;5.946;2023-07-02T14:29:33;6.55;;;4.35;;
49310;SDS011;35177;45.900;5.946;2023-07-02T14:31:59;7.00;;;4.82;;
49310;SDS011;35177;45.900;5.946;2023-07-02T14:34:24;6.47;;;4.53;;
49310;SDS011;35177;45.900;5.946;2023-07-02T14:36:50;5.43;;;4.00;;
49310;SDS011;35177;45.900;5.946;2023-07-02T14:39:15;6.38;;;4.60;;
49310;SDS011;35177;45.900;5.946;2023-07-02T14:41:41;7.40;;;4.93;;
49310;SDS011;35177;45.900;5.946;2023-07-02T14:44:07;8.95;;;5.50;;
49310;SDS011;35177;45.900;5.946;2023-07-02T14:46:35;8.23;;;4.90;;